createdAt,value
2023-03-11T00:05:01.645Z,98829.50
2023-03-11T00:10:04.221Z,98825.69
2023-03-11T00:15:06.280Z,98840.44
2023-03-11T00:20:14.394Z,98843.41
2023-03-11T00:25:16.032Z,98846.13
2023-03-11T00:30:19.650Z,98848.00
2023-03-11T00:35:30.917Z,98851.16
2023-03-11T00:40:35.741Z,98864.34
2023-03-11T00:45:37.780Z,98857.28
2023-03-11T00:50:40.223Z,98863.88
2023-03-11T00:55:42.005Z,98879.59
2023-03-11T01:00:43.749Z,98883.16
2023-03-11T01:05:45.465Z,98892.31
2023-03-11T01:10:47.088Z,98886.75
2023-03-11T01:15:48.995Z,98879.44
2023-03-11T01:20:50.914Z,98877.41
2023-03-11T01:25:52.598Z,98887.78
2023-03-11T01:30:54.274Z,98888.44
2023-03-11T01:35:56.036Z,98891.38
2023-03-11T01:40:57.804Z,98891.28
2023-03-11T01:46:02.281Z,98892.75
2023-03-11T01:51:04.294Z,98904.47
2023-03-11T01:56:06.666Z,98904.59
2023-03-11T02:01:08.440Z,98915.88
2023-03-11T02:06:14.196Z,98911.06
2023-03-11T02:11:20.722Z,98924.97
2023-03-11T02:16:22.624Z,98917.88
2023-03-11T02:21:32.869Z,98923.41
2023-03-11T02:27:05.568Z,98921.84
2023-03-11T02:32:09.394Z,98924.84
2023-03-11T02:37:13.755Z,98936.88
2023-03-11T02:42:26.410Z,98940.44
2023-03-11T02:47:28.379Z,98941.00
2023-03-11T02:52:33.574Z,98954.50
2023-03-11T02:57:35.230Z,98951.94
2023-03-11T03:02:37.431Z,98960.13
2023-03-11T03:07:40.332Z,98962.47
2023-03-11T03:12:42.664Z,98968.59
2023-03-11T03:17:45.076Z,98973.38
2023-03-11T03:22:47.409Z,98979.63
2023-03-11T03:27:51.141Z,98976.22
2023-03-11T03:32:53.464Z,98987.38
2023-03-11T03:37:56.002Z,98997.69
2023-03-11T03:42:58.325Z,98990.81
2023-03-11T03:48:00.598Z,98993.78
2023-03-11T03:53:02.876Z,99001.50
2023-03-11T03:58:05.160Z,99004.63
2023-03-11T04:03:07.809Z,99014.00
2023-03-11T04:08:10.145Z,99017.63
2023-03-11T04:13:12.418Z,99022.28
2023-03-11T04:18:14.742Z,99023.31
2023-03-11T04:23:17.258Z,99021.53
2023-03-11T04:28:20.296Z,99023.69
2023-03-11T04:33:22.829Z,99028.75
2023-03-11T04:38:25.767Z,99029.44
2023-03-11T04:43:28.110Z,99030.31
2023-03-11T04:48:30.400Z,99045.78
2023-03-11T04:53:32.761Z,99035.91
2023-03-11T04:58:35.081Z,99044.22
2023-03-11T05:03:37.389Z,99051.44
2023-03-11T05:08:39.744Z,99060.38
2023-03-11T05:13:42.110Z,99066.03
2023-03-11T05:18:44.461Z,99072.44
2023-03-11T05:23:46.758Z,99079.44
2023-03-11T05:28:49.000Z,99081.34
2023-03-11T05:33:50.686Z,99095.88
2023-03-11T05:38:53.344Z,99100.34
2023-03-11T05:43:54.962Z,99094.47
2023-03-11T05:48:56.815Z,99111.75
2023-03-11T05:53:58.781Z,99110.97
2023-03-11T05:59:00.380Z,99109.97
2023-03-11T06:04:02.246Z,99119.59
2023-03-11T06:09:04.167Z,99122.16
2023-03-11T06:14:05.779Z,99131.53
2023-03-11T06:19:07.418Z,99130.47
2023-03-11T06:24:09.080Z,99142.44
2023-03-11T06:29:14.980Z,99151.47
2023-03-11T06:34:16.581Z,99161.13
2023-03-11T06:39:18.275Z,99168.75
2023-03-11T06:44:20.046Z,99175.22
2023-03-11T06:49:21.663Z,99180.03
2023-03-11T06:54:23.267Z,99185.00
2023-03-11T06:59:25.154Z,99192.72
2023-03-11T07:04:26.867Z,99200.00
2023-03-11T07:09:29.531Z,99216.06
2023-03-11T07:14:31.208Z,99223.91
2023-03-11T07:19:32.874Z,99237.19
2023-03-11T07:24:34.478Z,99235.91
2023-03-11T07:29:36.144Z,99236.97
2023-03-11T07:34:37.894Z,99248.19
2023-03-11T07:39:39.630Z,99246.78
2023-03-11T07:44:41.236Z,99258.91
2023-03-11T07:49:42.865Z,99273.41
2023-03-11T07:54:45.399Z,99293.47
2023-03-11T07:59:47.014Z,99294.66
2023-03-11T08:04:48.611Z,99296.41
2023-03-11T08:09:50.320Z,99304.75
2023-03-11T08:14:51.992Z,99316.72
2023-03-11T08:19:53.676Z,99316.00
2023-03-11T08:24:56.636Z,99321.31
2023-03-11T08:30:00.263Z,99321.19
2023-03-11T08:35:01.951Z,99330.38
2023-03-11T08:40:04.253Z,99330.09
2023-03-11T08:45:06.572Z,99334.56
2023-03-11T08:50:13.932Z,99332.06
2023-03-11T08:55:18.661Z,99333.09
2023-03-11T09:00:20.724Z,99336.50
2023-03-11T09:05:22.339Z,99332.47
2023-03-11T09:10:25.042Z,99339.97
2023-03-11T09:15:27.896Z,99335.19
2023-03-11T09:20:29.611Z,99342.78
2023-03-11T09:25:32.241Z,99342.91
2023-03-11T09:30:34.815Z,99343.59
2023-03-11T09:35:39.347Z,99344.16
2023-03-11T09:41:19.241Z,99350.25
2023-03-11T09:46:30.856Z,99349.25
2023-03-11T09:51:43.335Z,99344.56
2023-03-11T09:56:45.374Z,99347.09
2023-03-11T10:01:50.533Z,99344.31
2023-03-11T10:06:53.154Z,99351.19
2023-03-11T10:12:16.033Z,99358.25
2023-03-11T10:17:55.184Z,99369.50
2023-03-11T10:23:08.607Z,99363.28
2023-03-11T10:28:17.545Z,99363.38
2023-03-11T10:33:27.176Z,99357.41
2023-03-11T10:38:46.646Z,99359.94
2023-03-11T10:44:13.948Z,99371.09
2023-03-11T10:49:17.571Z,99379.03
2023-03-11T10:54:46.453Z,99384.97
2023-03-11T10:59:51.879Z,99394.38
2023-03-11T11:05:29.316Z,99381.09
2023-03-11T11:10:32.488Z,99391.13
2023-03-11T11:15:42.659Z,99386.03
2023-03-11T11:21:37.347Z,99375.56
2023-03-11T11:26:38.997Z,99384.97
2023-03-11T11:31:43.536Z,99394.75
2023-03-11T11:36:45.928Z,99401.91
2023-03-11T11:41:50.058Z,99382.53
2023-03-11T11:46:59.757Z,99354.66
2023-03-11T11:52:19.501Z,99345.78
2023-03-11T11:57:23.757Z,99340.38
2023-03-11T12:02:43.499Z,99351.09
2023-03-11T12:08:07.398Z,99351.13
2023-03-11T12:13:46.606Z,99341.88
2023-03-11T12:19:01.535Z,99343.56
2023-03-11T12:24:03.074Z,99349.63
2023-03-11T12:29:26.710Z,99344.91
2023-03-11T12:34:30.989Z,99356.47
2023-03-11T12:39:34.392Z,99361.41
2023-03-11T12:44:40.741Z,99354.56
2023-03-11T12:49:45.348Z,99358.94
2023-03-11T12:54:50.257Z,99352.59
2023-03-11T13:00:23.312Z,99363.09
2023-03-11T13:05:56.018Z,99360.81
2023-03-11T13:10:58.861Z,99361.16
2023-03-11T13:16:12.613Z,99365.16
2023-03-11T13:21:32.390Z,99370.22
2023-03-11T13:26:42.975Z,99369.00
2023-03-11T13:31:56.613Z,99376.22
2023-03-11T13:37:20.504Z,99382.28
2023-03-11T13:42:42.646Z,99370.81
2023-03-11T13:47:49.659Z,99377.53
2023-03-11T13:52:54.125Z,99377.75
2023-03-11T13:57:57.591Z,99374.91
2023-03-11T14:03:03.867Z,99382.19
2023-03-11T14:08:27.463Z,99370.88
2023-03-11T14:13:31.358Z,99361.16
2023-03-11T14:18:37.134Z,99371.69
2023-03-11T14:23:44.919Z,99371.03
2023-03-11T14:28:50.535Z,99370.56
2023-03-11T14:34:15.436Z,99377.75
2023-03-11T14:39:25.991Z,99377.56
2023-03-11T14:44:29.662Z,99378.81
2023-03-11T14:49:31.630Z,99381.44
2023-03-11T14:54:36.124Z,99372.03
2023-03-11T14:59:39.348Z,99368.75
2023-03-11T15:04:44.343Z,99373.50
2023-03-11T15:09:46.831Z,99389.81
2023-03-11T15:14:51.506Z,99383.56
2023-03-11T15:19:53.217Z,99381.75
2023-03-11T15:24:59.788Z,99388.41
2023-03-11T15:30:04.933Z,99390.41
2023-03-11T15:35:10.820Z,99395.34
2023-03-11T15:40:26.107Z,99403.59
2023-03-11T15:45:31.811Z,99407.50
2023-03-11T15:50:50.479Z,99390.31
2023-03-11T15:56:03.868Z,99401.00
2023-03-11T16:01:09.870Z,99402.81
2023-03-11T16:06:11.565Z,99411.91
2023-03-11T16:11:13.412Z,99409.47
2023-03-11T16:16:17.384Z,99414.53
2023-03-11T16:21:21.406Z,99420.16
2023-03-11T16:26:23.235Z,99411.50
2023-03-11T16:31:25.222Z,99411.66
2023-03-11T16:36:27.096Z,99415.03
2023-03-11T16:41:28.773Z,99424.72
2023-03-11T16:46:30.466Z,99425.19
2023-03-11T16:51:33.062Z,99434.03
2023-03-11T16:56:35.719Z,99432.00
2023-03-11T17:01:38.621Z,99438.06
2023-03-11T17:06:40.367Z,99433.13
2023-03-11T17:11:42.922Z,99435.25
2023-03-11T17:16:45.566Z,99442.00
2023-03-11T17:21:47.309Z,99439.50
2023-03-11T17:26:48.926Z,99458.66
2023-03-11T17:31:50.648Z,99467.41
2023-03-11T17:36:52.488Z,99468.94
2023-03-11T17:41:54.110Z,99484.31
2023-03-11T17:46:55.787Z,99483.97
2023-03-11T17:51:57.502Z,99495.22
2023-03-11T17:56:59.100Z,99507.59
2023-03-11T18:02:00.875Z,99510.66
2023-03-11T18:07:03.480Z,99521.50
2023-03-11T18:12:06.753Z,99520.16
2023-03-11T18:17:08.533Z,99519.78
2023-03-11T18:22:10.244Z,99521.16
2023-03-11T18:27:12.897Z,99528.38
2023-03-11T18:32:14.588Z,99526.97
2023-03-11T18:37:16.293Z,99533.97
2023-03-11T18:42:17.982Z,99532.59
2023-03-11T18:47:19.597Z,99536.47
2023-03-11T18:52:21.381Z,99535.22
2023-03-11T18:57:23.179Z,99532.16
2023-03-11T19:02:26.166Z,99533.75
2023-03-11T19:07:30.785Z,99531.50
2023-03-11T19:12:34.510Z,99534.03
2023-03-11T19:17:36.251Z,99545.06
2023-03-11T19:22:38.261Z,99551.16
2023-03-11T19:27:40.302Z,99546.34
2023-03-11T19:32:41.962Z,99552.50
2023-03-11T19:37:43.584Z,99561.16
2023-03-11T19:42:45.249Z,99563.06
2023-03-11T19:47:50.718Z,99555.63
2023-03-11T19:52:52.500Z,99556.78
2023-03-11T19:57:55.003Z,99567.41
2023-03-11T20:02:56.905Z,99571.84
2023-03-11T20:07:58.674Z,99594.09
2023-03-11T20:13:02.934Z,99604.38
2023-03-11T20:18:06.281Z,99596.06
2023-03-11T20:23:07.995Z,99598.09
2023-03-11T20:28:09.884Z,99600.63
2023-03-11T20:33:11.564Z,99599.78
2023-03-11T20:38:13.327Z,99605.91
2023-03-11T20:43:14.943Z,99610.25
2023-03-11T20:48:16.677Z,99615.47
2023-03-11T20:53:18.324Z,99613.00
2023-03-11T20:58:19.987Z,99619.06
2023-03-11T21:03:21.953Z,99617.38
2023-03-11T21:08:23.775Z,99618.34
2023-03-11T21:13:25.450Z,99616.69
2023-03-11T21:18:27.182Z,99614.13
2023-03-11T21:23:28.920Z,99615.97
2023-03-11T21:28:31.518Z,99611.84
2023-03-11T21:33:33.444Z,99616.28
2023-03-11T21:38:35.683Z,99624.22
2023-03-11T21:43:38.957Z,99622.59
2023-03-11T21:48:40.682Z,99622.72
2023-03-11T21:53:42.853Z,99616.19
2023-03-11T21:58:44.692Z,99625.09
2023-03-11T22:03:47.475Z,99623.34
2023-03-11T22:08:49.349Z,99622.34
2023-03-11T22:13:54.157Z,99632.69
2023-03-11T22:18:55.981Z,99624.91
2023-03-11T22:23:57.676Z,99622.22
2023-03-11T22:28:59.313Z,99621.25
2023-03-11T22:34:00.911Z,99623.84
2023-03-11T22:39:04.412Z,99629.09
2023-03-11T22:44:06.153Z,99628.88
2023-03-11T22:49:07.793Z,99635.69
2023-03-11T22:54:09.501Z,99642.53
2023-03-11T22:59:11.147Z,99636.69
2023-03-11T23:04:12.842Z,99630.97
2023-03-11T23:09:14.877Z,99635.31
2023-03-11T23:14:16.809Z,99630.97
2023-03-11T23:19:18.467Z,99641.28
2023-03-11T23:24:20.093Z,99634.47
2023-03-11T23:29:21.790Z,99626.78
2023-03-11T23:34:23.461Z,99630.06
2023-03-11T23:39:25.085Z,99629.97
2023-03-11T23:44:27.076Z,99643.00
2023-03-11T23:49:28.796Z,99639.41
2023-03-11T23:54:30.463Z,99628.88
2023-03-11T23:59:32.194Z,99631.22
